Time;durP1;ratioP1;P1;durP2;ratioP2;P2;SDS_P1;SDS_P2;PMS_P1;PMS_P2;Temp;Humidity;BMP_temperature;BMP_pressure;BME280_temperature;BME280_humidity;BME280_pressure;Samples;Min_cycle;Max_cycle;Signal;HPM_P1;HPM_P2
2023/07/13 00:02:56;;;;;;;2.40;2.20;;;;;;;18.87;81.93;98428.31;225681;1278;22554;-77
2023/07/13 00:08:01;;;;;;;3.70;2.20;;;;;;;18.86;81.98;98421.40;225521;1279;22536;-78
2023/07/13 00:13:38;;;;;;;3.30;2.20;;;;;;;18.88;82.12;98422.49;225586;1281;24213;-77
2023/07/13 00:18:42;;;;;;;2.80;2.10;;;;;;;18.89;81.97;98422.23;225610;1280;23554;-77
2023/07/13 00:23:45;;;;;;;2.90;2.00;;;;;;;18.87;81.81;98416.97;225711;1278;23106;-78
2023/07/13 00:28:47;;;;;;;5.00;2.20;;;;;;;18.86;81.79;98413.63;225612;1279;22552;-76
2023/07/13 00:33:50;;;;;;;3.10;2.10;;;;;;;18.87;81.84;98409.80;225592;1271;22559;-77
2023/07/13 00:38:53;;;;;;;2.40;1.90;;;;;;;18.88;81.83;98414.77;225624;1281;22569;-77
2023/07/13 00:43:55;;;;;;;3.10;2.20;;;;;;;18.87;81.82;98414.83;225523;1280;24938;-77
2023/07/13 00:49:04;;;;;;;4.90;2.90;;;;;;;18.87;81.80;98406.58;225530;1280;22539;-77
2023/07/13 00:54:20;;;;;;;4.00;3.60;;;;;;;18.92;82.19;98394.22;225619;1281;22548;-77
2023/07/13 00:59:24;;;;;;;4.40;4.00;;;;;;;18.91;81.98;98386.87;225715;1275;22526;-78
2023/07/13 01:04:29;;;;;;;3.90;3.50;;;;;;;18.87;81.92;98395.28;225690;1281;22576;-77
2023/07/13 01:09:59;;;;;;;4.50;3.70;;;;;;;18.81;81.93;98425.27;225619;1281;22540;-78
2023/07/13 01:15:06;;;;;;;4.60;4.20;;;;;;;18.73;82.26;98434.89;225550;1280;22564;-77
2023/07/13 01:20:09;;;;;;;3.60;3.30;;;;;;;18.68;83.25;98462.67;225594;1281;22661;-76
2023/07/13 01:25:11;;;;;;;3.20;2.80;;;;;;;18.60;83.50;98466.52;225593;1279;22565;-77
2023/07/13 01:30:14;;;;;;;4.10;3.20;;;;;;;18.50;83.52;98458.30;225617;1279;22543;-78
2023/07/13 01:35:16;;;;;;;4.00;2.90;;;;;;;18.45;83.63;98463.94;225599;1280;25279;-77
2023/07/13 01:40:21;;;;;;;4.80;3.40;;;;;;;18.42;83.99;98451.46;225611;1280;22532;-77
2023/07/13 01:45:27;;;;;;;5.80;4.50;;;;;;;18.43;84.16;98399.10;225622;1278;24206;-79
2023/07/13 01:50:37;;;;;;;5.50;4.00;;;;;;;18.40;84.28;98360.66;225621;1281;22534;-78
2023/07/13 01:55:40;;;;;;;5.40;3.90;;;;;;;18.39;84.53;98327.16;225651;1281;22546;-79
2023/07/13 02:00:49;;;;;;;4.50;3.80;;;;;;;18.42;84.91;98310.22;225634;1281;22556;-78
2023/07/13 02:06:10;;;;;;;;;;;;;;;18.44;84.91;98313.88;225665;1278;22543;-78
2023/07/13 02:11:32;;;;;;;6.90;5.30;;;;;;;18.42;85.01;98324.72;225613;1281;22565;-78
2023/07/13 02:16:37;;;;;;;5.20;4.70;;;;;;;18.42;85.27;98319.69;225514;1280;22548;-78
2023/07/13 02:21:54;;;;;;;5.90;5.10;;;;;;;18.44;85.35;98305.75;225698;1277;22550;-78
2023/07/13 02:27:08;;;;;;;6.20;5.70;;;;;;;18.48;85.45;98303.88;225460;1279;22530;-78
2023/07/13 02:32:44;;;;;;;6.90;5.90;;;;;;;18.53;85.51;98315.83;225667;1281;22551;-78
2023/07/13 02:38:12;;;;;;;7.00;6.00;;;;;;;18.53;85.48;98323.86;225709;1278;22671;-78
2023/07/13 02:43:25;;;;;;;6.60;5.60;;;;;;;18.52;85.51;98315.98;225657;1258;22539;-78
2023/07/13 02:48:28;;;;;;;5.70;4.90;;;;;;;18.49;85.27;98310.00;225498;1281;22559;-79
2023/07/13 02:53:55;;;;;;;6.30;5.10;;;;;;;18.42;85.23;98318.41;225653;1281;22526;-78
2023/07/13 02:59:30;;;;;;;;;;;;;;;;;;;;;
2023/07/13 03:04:35;;;;;;;6.80;5.50;;;;;;;18.32;85.43;98365.00;225630;1281;22534;-78
2023/07/13 03:09:50;;;;;;;7.50;5.60;;;;;;;18.32;85.74;98368.59;225675;1278;22633;-77
2023/07/13 03:15:45;;;;;;;13.50;6.60;;;;;;;18.34;85.77;98378.89;225674;1281;22530;-77
2023/07/13 03:20:54;;;;;;;8.60;5.90;;;;;;;18.41;85.91;98387.64;225584;1281;22533;-77
2023/07/13 03:26:14;;;;;;;6.50;5.20;;;;;;;18.47;85.72;98395.90;225677;1281;22530;-78
2023/07/13 03:31:28;;;;;;;8.40;6.50;;;;;;;18.56;85.62;98402.98;225677;1281;22547;-77
2023/07/13 03:36:57;;;;;;;6.60;6.00;;;;;;;18.73;85.60;98396.09;225658;1281;24365;-77
2023/07/13 03:42:44;;;;;;;;;;;;;;;;;;;;;
2023/07/13 03:47:55;;;;;;;8.10;5.60;;;;;;;19.69;84.99;98401.63;225679;1278;22548;-77
2023/07/13 03:53:00;;;;;;;5.70;5.10;;;;;;;19.95;84.13;98409.92;225594;1281;23423;-78
2023/07/13 03:58:41;;;;;;;7.40;5.50;;;;;;;19.95;83.64;98413.46;225657;1281;22549;-77
2023/07/13 04:04:16;;;;;;;5.70;5.00;;;;;;;19.96;83.47;98426.39;225700;1281;22640;-77
2023/07/13 04:09:25;;;;;;;8.90;6.00;;;;;;;19.97;83.64;98444.54;225444;1281;24219;-77
2023/07/13 04:14:28;;;;;;;9.70;5.70;;;;;;;19.93;83.75;98448.73;225613;1281;24225;-77
2023/07/13 04:20:21;;;;;;;8.80;6.40;;;;;;;19.90;83.76;98450.31;225718;1281;22528;-77
2023/07/13 04:25:52;;;;;;;7.60;6.20;;;;;;;19.88;83.68;98441.20;225536;1281;22547;-78
2023/07/13 04:31:03;;;;;;;7.30;6.50;;;;;;;19.87;83.57;98420.23;225655;1281;22564;-78
2023/07/13 04:36:07;;;;;;;7.50;6.30;;;;;;;19.91;83.64;98412.63;225615;1281;22552;-78
2023/07/13 04:41:10;;;;;;;7.30;6.60;;;;;;;20.00;83.79;98412.44;225671;1281;22543;-78
2023/07/13 04:46:18;;;;;;;10.50;7.50;;;;;;;20.14;83.66;98414.77;225700;1280;22536;-77
2023/07/13 04:51:29;;;;;;;9.10;7.00;;;;;;;20.29;83.68;98411.48;225657;1281;22542;-76
2023/07/13 04:56:34;;;;;;;7.80;6.70;;;;;;;20.46;83.45;98413.70;225665;1279;23698;-78
2023/07/13 05:01:37;;;;;;;7.50;6.50;;;;;;;20.59;83.16;98411.40;225449;1281;22529;-78
2023/07/13 05:06:41;;;;;;;11.90;7.40;;;;;;;20.72;83.13;98413.34;225674;1278;22579;-77
2023/07/13 05:11:44;;;;;;;8.50;7.60;;;;;;;20.93;83.30;98405.35;225701;1277;25261;-78
2023/07/13 05:16:50;;;;;;;9.00;6.80;;;;;;;21.19;83.15;98407.52;225687;1281;22536;-77
2023/07/13 05:21:58;;;;;;;9.50;7.70;;;;;;;21.42;83.01;98406.67;225664;1278;22565;-77
2023/07/13 05:27:01;;;;;;;9.90;7.60;;;;;;;21.65;82.47;98404.64;225616;1281;22559;-77
2023/07/13 05:32:04;;;;;;;8.00;7.20;;;;;;;21.81;81.64;98405.13;225639;1281;22556;-76
2023/07/13 05:37:08;;;;;;;12.40;6.70;;;;;;;21.98;81.54;98405.66;225562;1269;22547;-77
2023/07/13 05:42:14;;;;;;;8.50;7.20;;;;;;;22.20;81.19;98402.46;225560;1281;22548;-77
2023/07/13 05:48:02;;;;;;;7.50;6.60;;;;;;;22.39;80.71;98390.52;225671;1281;22563;-77
2023/07/13 05:53:17;;;;;;;8.00;7.20;;;;;;;22.52;80.08;98403.45;225610;1277;22560;-78
2023/07/13 05:58:28;;;;;;;8.40;7.10;;;;;;;22.69;79.88;98394.02;225690;1277;22584;-78
2023/07/13 06:03:41;;;;;;;7.60;6.80;;;;;;;22.87;79.80;98390.68;225594;1278;22549;-79
2023/07/13 06:08:56;;;;;;;8.50;7.40;;;;;;;23.10;79.36;98385.54;225559;1267;22558;-78
2023/07/13 06:13:58;;;;;;;9.60;7.00;;;;;;;23.33;79.07;98385.45;225497;1275;22564;-79
2023/07/13 06:19:01;;;;;;;6.90;6.00;;;;;;;23.59;78.71;98382.42;225233;1276;22582;-77
2023/07/13 06:24:04;;;;;;;9.20;6.20;;;;;;;23.73;77.48;98383.88;225114;1273;213338;-78
2023/07/13 06:29:07;;;;;;;6.90;6.20;;;;;;;23.86;77.05;98387.91;225196;1265;22557;-77
2023/07/13 06:34:09;;;;;;;8.70;6.30;;;;;;;24.01;76.79;98390.37;225470;1273;22552;-77
2023/07/13 06:39:11;;;;;;;8.10;6.50;;;;;;;24.14;76.42;98394.02;225275;1259;22571;-78
2023/07/13 06:44:21;;;;;;;8.60;6.70;;;;;;;24.23;75.89;98400.20;225097;1278;23638;-78
2023/07/13 06:49:26;;;;;;;8.60;7.20;;;;;;;24.19;75.64;98406.91;225419;1280;22569;-77
2023/07/13 06:54:31;;;;;;;11.80;7.30;;;;;;;23.96;75.13;98417.40;225668;1279;22545;-79
2023/07/13 06:59:36;;;;;;;7.40;6.70;;;;;;;23.80;75.51;98426.88;225430;1274;22543;-78
2023/07/13 07:04:48;;;;;;;8.30;7.50;;;;;;;23.61;75.75;98438.84;225336;1275;22524;-77
2023/07/13 07:09:53;;;;;;;8.90;8.10;;;;;;;23.45;76.14;98455.16;225480;1275;25474;-79
2023/07/13 07:15:02;;;;;;;8.40;7.60;;;;;;;23.27;76.34;98465.08;225555;1280;22694;-77
2023/07/13 07:20:06;;;;;;;12.70;8.20;;;;;;;23.08;76.67;98469.05;225559;1278;22469;-76
2023/07/13 07:25:10;;;;;;;11.80;7.70;;;;;;;22.88;77.11;98468.44;225432;1278;22852;-77
2023/07/13 07:30:13;;;;;;;10.20;7.80;;;;;;;22.78;77.66;98471.27;225520;1279;22539;-76
2023/07/13 07:35:19;;;;;;;8.60;7.40;;;;;;;22.69;77.63;98476.06;225552;1274;22739;-76
2023/07/13 07:40:21;;;;;;;11.10;8.50;;;;;;;22.63;78.00;98479.48;225552;1280;22560;-76
2023/07/13 07:45:26;;;;;;;10.90;8.10;;;;;;;22.68;78.51;98484.70;225612;1274;22572;-76
2023/07/13 07:50:29;;;;;;;11.30;7.10;;;;;;;22.71;78.32;98487.52;225458;1268;22712;-77
2023/07/13 07:55:35;;;;;;;7.60;6.80;;;;;;;22.75;78.20;98488.34;225278;1281;22541;-76
2023/07/13 08:00:59;;;;;;;12.20;7.40;;;;;;;22.81;78.06;98484.36;225298;1279;21939;-77
2023/07/13 08:06:04;;;;;;;9.30;8.30;;;;;;;22.97;77.84;98469.31;225412;1278;22703;-77
2023/07/13 08:11:14;;;;;;;8.10;7.30;;;;;;;23.30;77.83;98460.09;225070;1263;23021;-78
2023/07/13 08:16:23;;;;;;;7.50;6.80;;;;;;;23.64;76.99;98453.61;225070;1280;22568;-77
2023/07/13 08:21:25;;;;;;;9.40;8.40;;;;;;;23.89;76.00;98455.20;225181;1274;22628;-77
2023/07/13 08:26:29;;;;;;;10.60;8.90;;;;;;;24.12;75.45;98459.14;225239;1279;22601;-77
2023/07/13 08:31:31;;;;;;;9.40;8.50;;;;;;;24.35;75.01;98467.17;225254;1281;22644;-76
2023/07/13 08:36:34;;;;;;;10.90;9.90;;;;;;;24.58;74.54;98470.08;225194;1279;22822;-76
2023/07/13 08:41:38;;;;;;;11.80;9.00;;;;;;;24.78;73.88;98466.28;224974;1274;22562;-77
2023/07/13 08:46:45;;;;;;;11.10;9.90;;;;;;;24.87;73.29;98469.32;225254;1274;24273;-77
2023/07/13 08:52:03;;;;;;;11.30;9.70;;;;;;;24.79;72.88;98477.08;225508;1280;22547;-77
2023/07/13 08:57:18;;;;;;;10.30;9.30;;;;;;;24.50;72.91;98489.16;225820;1279;22633;-77
2023/07/13 09:02:45;;;;;;;10.30;9.40;;;;;;;23.89;72.06;98495.67;225376;1277;22579;-77
2023/07/13 09:08:09;;;;;;;8.10;7.30;;;;;;;23.47;72.09;98506.02;225274;1264;22681;-76
2023/07/13 09:13:39;;;;;;;7.50;6.80;;;;;;;23.21;71.66;98522.58;225437;1277;22552;-77
2023/07/13 09:19:07;;;;;;;7.40;6.00;;;;;;;22.77;71.59;98537.64;225407;1257;22736;-77
2023/07/13 09:24:50;;;;;;;6.20;5.10;;;;;;;22.19;71.89;98553.02;225455;1276;22542;-77
2023/07/13 09:30:39;;;;;;;5.90;3.40;;;;;;;21.46;72.62;98583.93;225397;1280;22575;-77
2023/07/13 09:35:42;;;;;;;3.70;2.90;;;;;;;20.57;74.49;98581.94;225440;1280;22580;-78
2023/07/13 09:41:50;;;;;;;2.70;2.50;;;;;;;19.67;76.62;98580.02;225794;1280;24247;-78
2023/07/13 09:46:55;;;;;;;4.20;3.20;;;;;;;18.90;78.26;98573.30;225943;1276;22715;-78
2023/07/13 09:52:38;;;;;;;4.10;3.20;;;;;;;18.47;79.53;98574.21;225855;1280;22559;-80
2023/07/13 09:58:23;;;;;;;;;;;;;;;;;;;;;
2023/07/13 10:03:42;;;;;;;4.80;3.10;;;;;;;17.78;82.28;98587.13;225565;1273;22595;-83
2023/07/13 10:09:28;;;;;;;3.20;2.90;;;;;;;17.50;83.31;98590.30;225448;1281;22574;-83
2023/07/13 10:15:35;;;;;;;;;;;;;;;;;;;;;
2023/07/13 10:21:59;;;;;;;4.80;3.10;;;;;;;17.02;85.52;98601.02;225631;1281;22591;-83
2023/07/13 10:28:51;;;;;;;4.90;3.90;;;;;;;16.96;85.86;98602.88;225541;1281;22579;-84
2023/07/13 10:35:22;;;;;;;4.30;3.90;;;;;;;17.00;86.11;98604.67;225768;1276;25367;-82
2023/07/13 10:42:07;;;;;;;3.40;3.10;;;;;;;17.11;86.09;98607.91;225093;1277;25353;-82
2023/07/13 10:48:06;;;;;;;3.70;3.10;;;;;;;17.30;86.30;98611.42;225052;1283;25340;-81
2023/07/13 10:53:58;;;;;;;;;;;;;;;;;;;;;
2023/07/13 11:00:36;;;;;;;;;;;;;;;;;;;;;
2023/07/13 11:06:44;;;;;;;;;;;;;;;;;;;;;
2023/07/13 11:18:33;;;;;;;3.50;3.20;;;;;;;18.43;85.98;98623.32;224959;1281;22547;-82
2023/07/13 11:24:05;;;;;;;4.00;2.90;;;;;;;18.66;85.63;98641.10;225273;1279;22579;-84
2023/07/13 11:29:18;;;;;;;3.00;2.70;;;;;;;18.89;85.40;98643.88;225421;1273;22543;-82
2023/07/13 11:34:31;;;;;;;5.10;3.20;;;;;;;19.10;85.52;98646.27;225137;1273;22558;-79
2023/07/13 11:39:41;;;;;;;3.60;3.30;;;;;;;19.29;84.96;98652.00;225301;1265;22599;-81
2023/07/13 11:50:24;;;;;;;4.40;3.10;;;;;;;19.54;83.99;98666.77;225490;1267;22594;-79
2023/07/13 12:02:27;;;;;;;3.50;2.60;;;;;;;19.86;83.42;98682.02;224731;1286;24285;-85
2023/07/13 12:07:37;;;;;;;2.60;2.40;;;;;;;19.98;82.90;98686.79;225617;1280;22547;-84
2023/07/13 12:13:26;;;;;;;2.60;2.40;;;;;;;20.11;82.66;98696.84;225580;1280;22621;-84
2023/07/13 12:19:04;;;;;;;2.60;2.20;;;;;;;20.12;82.09;98691.49;225698;1277;22560;-87
2023/07/13 12:24:37;;;;;;;2.60;2.40;;;;;;;20.23;82.07;98693.80;225641;1280;22590;-86
2023/07/13 12:30:10;;;;;;;3.00;2.70;;;;;;;20.53;82.04;98687.38;225249;1265;23337;-84
2023/07/13 12:35:22;;;;;;;3.80;3.50;;;;;;;21.08;81.71;98691.91;225458;1274;24270;-80
2023/07/13 12:40:56;;;;;;;2.90;2.70;;;;;;;21.66;80.61;98693.30;225101;1277;23617;-82
2023/07/13 12:46:02;;;;;;;2.50;2.30;;;;;;;22.07;79.42;98692.04;225220;1275;22565;-83
2023/07/13 12:51:11;;;;;;;2.80;2.60;;;;;;;22.32;78.40;98677.08;225555;1276;22568;-83
2023/07/13 12:56:26;;;;;;;3.70;3.40;;;;;;;22.54;77.48;98669.20;225610;1274;24292;-84
2023/07/13 13:01:32;;;;;;;4.30;3.10;;;;;;;22.57;76.64;98674.63;225467;1269;22568;-83
2023/07/13 13:07:00;;;;;;;2.20;2.00;;;;;;;22.55;76.44;98676.79;225539;1280;25414;-80
2023/07/13 13:12:13;;;;;;;;;;;;;;;22.39;75.53;98692.86;225511;1276;22527;-81
2023/07/13 13:17:20;;;;;;;1.90;1.80;;;;;;;22.40;75.45;98694.70;225492;1276;23511;-79
2023/07/13 13:22:23;;;;;;;5.20;4.70;;;;;;;22.53;75.05;98692.46;225325;1270;22608;-79
2023/07/13 13:27:29;;;;;;;3.50;2.10;;;;;;;22.45;74.81;98698.80;225438;1281;22571;-79
2023/07/13 13:32:32;;;;;;;2.40;2.20;;;;;;;22.26;75.01;98691.55;225529;1276;24278;-81
2023/07/13 13:37:35;;;;;;;2.80;2.40;;;;;;;22.23;75.07;98695.27;225370;1273;22558;-80
2023/07/13 13:42:38;;;;;;;2.70;2.30;;;;;;;22.39;75.17;98698.95;225609;1276;22555;-80
2023/07/13 13:47:50;;;;;;;3.20;2.50;;;;;;;22.74;74.78;98701.16;225471;1280;22541;-80
2023/07/13 13:52:56;;;;;;;2.60;2.40;;;;;;;23.11;74.32;98708.18;225607;1280;24380;-79
2023/07/13 13:58:11;;;;;;;3.00;2.40;;;;;;;23.12;73.71;98711.86;225465;1276;22556;-79
2023/07/13 14:03:21;;;;;;;3.30;3.00;;;;;;;23.12;73.34;98716.16;225423;1276;22527;-82
2023/07/13 14:08:24;;;;;;;3.00;2.70;;;;;;;23.13;73.01;98714.93;225330;1264;22539;-83
2023/07/13 14:13:36;;;;;;;3.60;3.30;;;;;;;23.17;72.94;98715.88;225668;1280;23114;-79
2023/07/13 14:18:38;;;;;;;3.80;3.50;;;;;;;23.25;73.12;98707.58;225600;1278;22898;-82
2023/07/13 14:23:43;;;;;;;5.10;4.60;;;;;;;23.33;72.72;98703.83;225516;1276;22543;-80
2023/07/13 14:28:48;;;;;;;5.60;5.00;;;;;;;23.54;72.18;98703.97;225311;1277;22550;-81
2023/07/13 14:33:54;;;;;;;5.60;5.20;;;;;;;23.75;71.34;98697.06;225553;1280;22651;-80
2023/07/13 14:38:58;;;;;;;6.60;6.00;;;;;;;23.78;70.39;98690.67;225841;1275;22541;-80
2023/07/13 14:44:01;;;;;;;6.50;6.00;;;;;;;23.81;70.05;98683.38;225811;1278;22548;-80
2023/07/13 14:49:09;;;;;;;6.40;5.90;;;;;;;23.72;70.05;98681.80;225803;1278;22526;-81
2023/07/13 14:54:12;;;;;;;6.00;5.40;;;;;;;23.69;70.04;98679.44;225826;1280;22735;-81
2023/07/13 14:59:15;;;;;;;5.60;5.10;;;;;;;23.88;70.03;98684.42;225779;1279;22622;-81
2023/07/13 15:04:20;;;;;;;6.20;5.60;;;;;;;24.00;69.75;98695.71;225859;1276;22547;-80
2023/07/13 15:09:25;;;;;;;5.70;5.20;;;;;;;24.23;69.80;98697.73;225797;1274;24305;-81
2023/07/13 15:14:28;;;;;;;4.70;4.20;;;;;;;24.38;68.87;98691.20;225731;1279;22538;-80
2023/07/13 15:19:35;;;;;;;4.20;3.90;;;;;;;24.29;68.21;98683.01;225851;1278;22555;-81
2023/07/13 15:24:38;;;;;;;4.90;4.50;;;;;;;24.05;67.72;98676.30;225839;1279;22551;-80
2023/07/13 15:29:42;;;;;;;4.30;4.00;;;;;;;23.73;67.61;98675.91;225902;1280;23912;-78
2023/07/13 15:34:46;;;;;;;4.70;4.30;;;;;;;23.55;68.13;98670.75;225805;1280;22569;-80
2023/07/13 15:39:48;;;;;;;3.30;3.00;;;;;;;23.59;68.41;98658.91;225749;1278;22593;-80
2023/07/13 15:44:50;;;;;;;5.00;3.80;;;;;;;23.68;67.53;98675.88;225823;1280;22539;-81
2023/07/13 15:49:53;;;;;;;2.50;2.30;;;;;;;23.71;67.31;98695.84;225802;1277;25573;-80
2023/07/13 15:55:00;;;;;;;2.90;2.70;;;;;;;23.66;66.53;98696.87;225819;1280;25655;-81
2023/07/13 16:00:03;;;;;;;2.80;2.60;;;;;;;23.61;66.76;98693.86;225796;1278;22624;-80
2023/07/13 16:05:15;;;;;;;7.20;6.60;;;;;;;23.64;66.94;98685.60;225874;1275;22564;-79
2023/07/13 16:10:32;;;;;;;2.60;2.40;;;;;;;23.75;66.75;98677.63;225858;1278;22527;-80
2023/07/13 16:15:35;;;;;;;2.40;2.30;;;;;;;23.82;66.30;98691.48;225855;1275;25325;-79
2023/07/13 16:20:41;;;;;;;2.50;2.30;;;;;;;23.84;65.75;98694.39;225667;1276;22551;-79
2023/07/13 16:25:44;;;;;;;2.70;2.50;;;;;;;23.67;65.54;98681.81;225814;1280;25464;-80
2023/07/13 16:30:48;;;;;;;4.30;2.60;;;;;;;23.61;65.98;98677.02;225805;1280;22547;-80
2023/07/13 16:35:50;;;;;;;2.90;2.70;;;;;;;23.62;66.12;98687.33;225837;1275;22565;-80
2023/07/13 16:40:52;;;;;;;2.70;2.60;;;;;;;23.69;66.06;98692.06;225806;1278;22539;-79
2023/07/13 16:45:59;;;;;;;2.90;2.70;;;;;;;23.70;65.86;98702.91;225827;1257;22621;-80
2023/07/13 16:51:04;;;;;;;2.50;2.30;;;;;;;23.77;65.99;98705.52;225686;1264;22551;-79
2023/07/13 16:56:16;;;;;;;3.10;2.60;;;;;;;23.73;65.90;98694.05;225691;1280;22530;-79
2023/07/13 17:01:18;;;;;;;3.60;2.50;;;;;;;23.71;66.00;98695.14;225835;1279;22579;-79
2023/07/13 17:06:24;;;;;;;2.50;2.30;;;;;;;23.70;65.86;98706.36;225829;1280;22544;-79
2023/07/13 17:11:30;;;;;;;3.40;2.60;;;;;;;23.74;65.50;98713.86;225855;1273;22611;-78
2023/07/13 17:16:32;;;;;;;2.50;2.30;;;;;;;23.77;65.55;98709.02;225858;1278;22593;-81
2023/07/13 17:21:35;;;;;;;3.00;2.80;;;;;;;24.09;65.65;98713.05;225802;1280;22536;-79
2023/07/13 17:26:38;;;;;;;2.90;2.70;;;;;;;25.07;65.91;98712.79;225668;1280;22554;-79
2023/07/13 17:31:41;;;;;;;2.60;2.40;;;;;;;26.34;65.17;98729.23;225770;1278;24402;-80
2023/07/13 17:36:44;;;;;;;3.10;2.90;;;;;;;27.51;63.61;98723.70;225844;1278;22555;-79
2023/07/13 17:41:47;;;;;;;2.40;2.30;;;;;;;28.25;61.55;98724.63;226004;1277;24920;-79
2023/07/13 17:46:50;;;;;;;2.20;2.10;;;;;;;29.04;60.52;98729.36;225863;1275;22562;-78
2023/07/13 17:51:52;;;;;;;2.40;2.30;;;;;;;29.02;58.45;98731.20;225713;1280;22610;-79
2023/07/13 17:56:54;;;;;;;3.30;2.60;;;;;;;28.01;57.24;98724.75;225922;1279;22563;-79
2023/07/13 18:01:57;;;;;;;3.10;2.80;;;;;;;27.00;58.31;98728.32;225798;1278;23323;-78
2023/07/13 18:07:08;;;;;;;3.00;2.80;;;;;;;26.19;59.10;98733.65;225751;1280;22551;-79
2023/07/13 18:12:11;;;;;;;3.30;3.10;;;;;;;25.49;59.84;98736.77;226016;1277;24229;-79
2023/07/13 18:17:14;;;;;;;3.20;3.00;;;;;;;24.94;60.88;98738.43;225886;1280;22577;-79
2023/07/13 18:22:17;;;;;;;3.30;3.10;;;;;;;24.50;61.45;98741.76;225665;1280;370489;-79
2023/07/13 18:27:20;;;;;;;4.70;3.50;;;;;;;24.05;62.19;98746.44;225996;1275;22540;-79
2023/07/13 18:32:23;;;;;;;3.20;3.00;;;;;;;23.69;63.24;98750.66;225929;1280;22596;-78
2023/07/13 18:37:26;;;;;;;3.40;3.20;;;;;;;23.34;63.76;98752.48;225837;1280;22543;-78
2023/07/13 18:42:38;;;;;;;5.50;3.70;;;;;;;23.03;64.84;98755.61;225829;1280;22591;-78
2023/07/13 18:47:50;;;;;;;3.10;2.90;;;;;;;22.74;65.33;98763.34;225842;1278;22542;-78
2023/07/13 18:52:53;;;;;;;3.60;2.90;;;;;;;22.41;66.03;98773.70;225858;1280;22753;-78
2023/07/13 18:57:58;;;;;;;3.80;2.70;;;;;;;22.12;66.70;98779.63;225890;1280;22539;-78
2023/07/13 19:03:03;;;;;;;3.50;2.80;;;;;;;21.81;67.01;98776.06;225781;1280;25297;-78
2023/07/13 19:08:12;;;;;;;3.10;2.90;;;;;;;21.46;67.58;98777.94;225842;1278;22540;-79
2023/07/13 19:13:23;;;;;;;3.60;3.30;;;;;;;21.19;68.45;98778.69;225908;1275;22663;-78
2023/07/13 19:18:29;;;;;;;3.70;3.40;;;;;;;20.92;69.10;98789.45;225853;1268;24187;-77
2023/07/13 19:23:43;;;;;;;3.90;3.60;;;;;;;20.65;69.68;98786.77;225948;1275;22539;-77
2023/07/13 19:28:48;;;;;;;4.10;3.80;;;;;;;20.44;70.51;98783.11;225824;1278;22543;-79
2023/07/13 19:33:51;;;;;;;4.90;4.60;;;;;;;20.25;71.18;98780.56;225734;1280;22562;-78
2023/07/13 19:38:54;;;;;;;5.60;5.10;;;;;;;20.05;71.74;98791.52;225883;1280;22575;-78
2023/07/13 19:43:56;;;;;;;6.00;5.30;;;;;;;19.85;72.28;98793.13;225860;1278;23340;-78
2023/07/13 19:49:03;;;;;;;5.00;4.60;;;;;;;19.63;72.66;98792.19;225929;1278;22553;-78
2023/07/13 19:54:14;;;;;;;6.00;5.40;;;;;;;19.44;73.39;98800.51;225665;1280;25366;-79
2023/07/13 19:59:26;;;;;;;6.40;5.80;;;;;;;19.30;73.99;98806.34;225793;1279;22567;-78
2023/07/13 20:04:28;;;;;;;7.40;6.80;;;;;;;19.15;74.56;98808.48;225854;1280;22549;-78
2023/07/13 20:09:34;;;;;;;8.70;7.90;;;;;;;19.02;75.17;98810.52;225840;1278;22682;-78
2023/07/13 20:14:46;;;;;;;8.30;7.60;;;;;;;18.87;75.97;98810.64;225687;1280;22643;-78
2023/07/13 20:19:48;;;;;;;8.60;7.60;;;;;;;18.68;76.61;98815.96;225805;1280;22552;-78
2023/07/13 20:24:51;;;;;;;10.10;8.10;;;;;;;18.50;76.76;98819.34;225842;1280;22554;-78
2023/07/13 20:29:56;;;;;;;10.80;9.80;;;;;;;18.35;77.25;98819.20;225781;1275;25456;-78
2023/07/13 20:34:59;;;;;;;10.80;9.70;;;;;;;18.22;77.65;98830.83;225938;1280;22588;-82
2023/07/13 20:40:05;;;;;;;11.70;10.60;;;;;;;18.10;78.04;98835.48;225743;1280;22569;-78
2023/07/13 20:45:13;;;;;;;12.00;10.80;;;;;;;18.00;78.51;98830.60;225739;1279;22523;-79
2023/07/13 20:50:25;;;;;;;10.80;9.70;;;;;;;17.90;78.53;98832.22;225780;1278;22531;-78
2023/07/13 20:55:30;;;;;;;11.30;10.20;;;;;;;17.83;79.11;98833.38;225919;1272;25402;-77
2023/07/13 21:00:33;;;;;;;10.90;9.80;;;;;;;17.76;79.42;98839.55;225810;1280;22544;-77
2023/07/13 21:05:40;;;;;;;10.30;9.40;;;;;;;17.71;79.83;98847.70;225771;1280;22542;-78
2023/07/13 21:10:45;;;;;;;10.90;9.90;;;;;;;17.68;80.00;98841.05;225903;1280;22577;-78
2023/07/13 21:15:47;;;;;;;13.10;9.90;;;;;;;17.64;80.23;98845.48;225851;1278;22543;-78
2023/07/13 21:20:54;;;;;;;10.50;9.50;;;;;;;17.61;80.48;98849.77;225825;1278;22531;-78
2023/07/13 21:26:01;;;;;;;10.80;9.70;;;;;;;17.61;80.73;98847.23;225801;1278;25377;-78
2023/07/13 21:31:14;;;;;;;11.60;10.60;;;;;;;17.60;81.04;98850.16;225935;1278;22582;-79
2023/07/13 21:36:36;;;;;;;11.30;10.20;;;;;;;17.60;81.12;98851.48;225850;1278;23121;-78
2023/07/13 21:42:01;;;;;;;11.10;10.10;;;;;;;17.58;81.39;98845.45;225845;1280;22551;-78
2023/07/13 21:47:07;;;;;;;11.60;10.40;;;;;;;17.53;81.58;98845.86;226041;1278;22551;-77
2023/07/13 21:52:21;;;;;;;12.00;10.80;;;;;;;17.47;81.58;98848.73;225914;1277;22539;-78
2023/07/13 21:57:28;;;;;;;12.80;11.60;;;;;;;17.39;81.76;98851.23;225950;1278;22714;-78
2023/07/13 22:02:30;;;;;;;12.20;11.00;;;;;;;17.30;81.99;98849.91;225813;1278;22579;-78
2023/07/13 22:07:33;;;;;;;13.50;11.80;;;;;;;17.22;82.23;98853.23;225824;1278;22607;-77
2023/07/13 22:12:38;;;;;;;13.10;11.90;;;;;;;17.16;82.44;98852.80;225839;1278;22567;-77
2023/07/13 22:17:46;;;;;;;14.70;12.50;;;;;;;17.10;82.63;98851.10;225868;1277;22553;-77
2023/07/13 22:22:49;;;;;;;14.70;13.40;;;;;;;17.03;82.89;98861.57;225849;1280;22539;-77
2023/07/13 22:27:55;;;;;;;15.40;13.90;;;;;;;16.98;82.75;98861.84;225833;1280;22555;-77
2023/07/13 22:33:01;;;;;;;14.00;12.60;;;;;;;16.92;83.09;98862.50;225921;1277;22550;-77
2023/07/13 22:38:39;;;;;;;14.60;13.20;;;;;;;16.83;83.01;98862.75;225935;1280;22536;-78
2023/07/13 22:43:55;;;;;;;15.30;13.90;;;;;;;16.72;83.00;98858.77;225815;1280;22562;-78
2023/07/13 22:49:03;;;;;;;15.60;14.10;;;;;;;16.65;83.38;98857.20;225845;1279;22544;-77
2023/07/13 22:54:12;;;;;;;14.80;13.30;;;;;;;16.57;83.65;98861.51;225876;1278;22540;-79
2023/07/13 22:59:14;;;;;;;15.30;13.60;;;;;;;16.50;83.62;98865.15;225848;1280;22566;-78
2023/07/13 23:04:32;;;;;;;15.90;14.40;;;;;;;16.44;83.82;98863.92;225799;1280;23441;-78
2023/07/13 23:09:34;;;;;;;16.50;14.90;;;;;;;16.38;83.90;98867.47;225807;1280;22545;-78
2023/07/13 23:15:03;;;;;;;16.60;14.90;;;;;;;16.31;84.16;98870.11;225858;1280;25410;-78
2023/07/13 23:20:42;;;;;;;16.40;14.50;;;;;;;16.25;84.29;98873.61;226033;1280;22555;-78
2023/07/13 23:25:45;;;;;;;17.40;15.30;;;;;;;16.19;84.43;98896.61;225822;1278;22544;-78
2023/07/13 23:30:51;;;;;;;21.90;16.00;;;;;;;16.07;84.42;98889.64;225755;1280;22542;-78
2023/07/13 23:36:15;;;;;;;28.90;17.50;;;;;;;15.99;84.58;98892.30;225803;1278;22575;-78
2023/07/13 23:41:20;;;;;;;20.00;18.00;;;;;;;15.94;84.60;98896.86;225811;1278;22534;-78
2023/07/13 23:46:31;;;;;;;21.80;18.50;;;;;;;15.90;84.77;98889.42;225737;1280;24246;-77
2023/07/13 23:51:34;;;;;;;20.30;18.00;;;;;;;15.88;85.31;98891.04;225936;1278;23098;-78
2023/07/13 23:56:37;;;;;;;21.30;18.40;;;;;;;15.87;85.13;98889.10;225838;1278;22580;-78
